Time;durP1;ratioP1;P1;durP2;ratioP2;P2;SDS_P1;SDS_P2;PMS_P1;PMS_P2;Temp;Humidity;BMP_temperature;BMP_pressure;BME280_temperature;BME280_humidity;BME280_pressure;Samples;Min_cycle;Max_cycle;Signal;HPM_P1;HPM_P2
2023/09/28 00:02:23;;;;;;;6.60;5.00;;;;;;;12.40;79.97;99898.17;105727;1251;72331;-23
2023/09/28 00:04:50;;;;;;;7.20;5.30;;;;;;;12.45;79.76;99896.92;105846;1251;61176;-26
2023/09/28 00:07:17;;;;;;;9.30;5.80;;;;;;;12.28;79.41;99896.96;105726;1252;61166;-25
2023/09/28 00:09:44;;;;;;;9.30;5.70;;;;;;;12.00;77.74;99893.94;106012;1251;73780;-24
2023/09/28 00:12:10;;;;;;;6.90;5.20;;;;;;;11.72;78.05;99894.75;105943;1255;73762;-25
2023/09/28 00:14:37;;;;;;;3.50;3.20;;;;;;;11.45;79.82;99894.45;105952;1251;72737;-24
2023/09/28 00:17:04;;;;;;;6.30;4.20;;;;;;;11.23;81.19;99897.39;105929;1252;62120;-23
2023/09/28 00:19:33;;;;;;;11.10;4.10;;;;;;;11.56;79.88;99894.33;106017;1255;61183;-23
2023/09/28 00:22:00;;;;;;;6.00;4.30;;;;;;;11.96;78.14;99897.55;105988;1251;73754;-23
2023/09/28 00:24:27;;;;;;;7.80;4.60;;;;;;;11.91;77.86;99893.24;105954;1251;74400;-23
2023/09/28 00:26:54;;;;;;;5.40;4.80;;;;;;;11.67;78.01;99896.50;105912;1255;72678;-23
2023/09/28 00:29:21;;;;;;;8.20;4.60;;;;;;;11.42;78.15;99895.84;105874;1252;61067;-23
2023/09/28 00:31:48;;;;;;;9.20;5.60;;;;;;;11.10;77.83;99901.21;105719;1256;61135;-23
2023/09/28 00:34:15;;;;;;;6.70;5.10;;;;;;;10.70;78.15;99904.27;105935;1251;73738;-23
2023/09/28 00:36:42;;;;;;;5.80;4.90;;;;;;;10.37;78.88;99904.27;105862;1251;74482;-22
2023/09/28 00:39:11;;;;;;;4.50;3.10;;;;;;;10.14;79.38;99906.64;105536;1254;72568;-23
2023/09/28 00:41:38;;;;;;;4.90;3.10;;;;;;;10.50;79.39;99905.78;105512;1256;61195;-23
2023/09/28 00:44:06;;;;;;;7.30;3.90;;;;;;;10.97;78.17;99902.16;105668;1257;61094;-23
2023/09/28 00:46:33;;;;;;;5.00;4.20;;;;;;;10.95;78.02;99898.09;105654;1251;74359;-23
2023/09/28 00:49:05;;;;;;;5.80;4.80;;;;;;;10.71;78.90;99901.61;105808;1251;74797;-23
2023/09/28 00:51:33;;;;;;;6.30;4.70;;;;;;;10.47;80.12;99901.86;105661;1254;72704;-23
2023/09/28 00:54:00;;;;;;;6.60;4.70;;;;;;;10.23;79.42;99904.31;105845;1252;61087;-22
2023/09/28 00:56:31;;;;;;;5.10;4.10;;;;;;;10.00;79.53;99900.77;105786;1257;61215;-23
2023/09/28 00:58:59;;;;;;;7.30;4.50;;;;;;;9.82;80.26;99901.56;105672;1255;73650;-22
2023/09/28 01:01:27;;;;;;;7.80;4.40;;;;;;;10.28;84.48;99898.75;105818;1254;74120;-23
2023/09/28 01:04:00;;;;;;;7.40;4.80;;;;;;;10.89;85.96;99895.60;105961;1257;73138;-23
2023/09/28 01:06:30;;;;;;;8.00;5.20;;;;;;;11.04;85.52;99895.07;105954;1251;61046;-22
2023/09/28 01:08:57;;;;;;;5.90;5.10;;;;;;;10.95;84.51;99893.91;105700;1251;61183;-23
2023/09/28 01:11:28;;;;;;;6.20;5.20;;;;;;;10.79;84.57;99895.55;105826;1257;73632;-23
2023/09/28 01:13:55;;;;;;;5.90;5.30;;;;;;;10.60;84.86;99898.73;105837;1251;74433;-23
2023/09/28 01:16:23;;;;;;;5.70;3.50;;;;;;;10.47;84.65;99899.61;105826;1253;72791;-23
2023/09/28 01:18:50;;;;;;;6.70;3.60;;;;;;;10.94;84.68;99896.59;105839;1251;61697;-23
2023/09/28 01:21:18;;;;;;;5.80;4.50;;;;;;;11.50;83.26;99896.86;105720;1257;61142;-23
2023/09/28 01:23:45;;;;;;;5.60;4.00;;;;;;;11.56;82.22;99895.94;105856;1257;72694;-23
2023/09/28 01:26:12;;;;;;;7.10;4.90;;;;;;;11.38;82.47;99893.84;105911;1257;74346;-23
2023/09/28 01:28:41;;;;;;;6.10;4.70;;;;;;;11.14;82.72;99895.55;105946;1256;71781;-23
2023/09/28 01:31:08;;;;;;;6.60;5.00;;;;;;;10.87;82.58;99893.58;105805;1254;61169;-23
2023/09/28 01:33:35;;;;;;;8.00;5.40;;;;;;;10.62;81.08;99893.73;105752;1255;61058;-23
2023/09/28 01:36:02;;;;;;;4.30;3.20;;;;;;;10.44;80.56;99893.92;105912;1251;73912;-22
2023/09/28 01:38:34;;;;;;;5.50;3.60;;;;;;;10.85;80.82;99889.89;105662;1251;74329;-23
2023/09/28 01:41:02;;;;;;;6.30;4.60;;;;;;;11.42;80.13;99890.86;105604;1252;71371;-23
2023/09/28 01:43:30;;;;;;;7.40;5.70;;;;;;;11.48;79.31;99891.97;105953;1251;61055;-23
2023/09/28 01:45:57;;;;;;;8.30;5.80;;;;;;;11.28;77.96;99893.88;105839;1251;61173;-23
2023/09/28 01:48:24;;;;;;;6.30;5.60;;;;;;;11.00;77.01;99894.98;105816;1251;72714;-23
2023/09/28 01:50:51;;;;;;;7.10;5.70;;;;;;;10.71;77.96;99896.24;105756;1251;74331;-22
2023/09/28 01:53:17;;;;;;;7.40;5.50;;;;;;;10.47;79.50;99896.12;105840;1251;72638;-22
2023/09/28 01:55:47;;;;;;;5.50;2.70;;;;;;;10.28;80.35;99900.35;105810;1254;61860;-22
2023/09/28 01:58:14;;;;;;;5.20;3.50;;;;;;;10.68;80.99;99896.59;105661;1257;61256;-22
2023/09/28 02:05:01;;;;;;;9.40;5.70;;;;;;;11.08;79.18;99901.21;105946;1251;76082;-22
2023/09/28 02:07:34;;;;;;;9.70;7.30;;;;;;;10.82;79.57;99903.31;105827;1256;72636;-22
2023/09/28 02:10:01;;;;;;;9.90;7.50;;;;;;;10.56;79.40;99903.51;105715;1251;61114;-22
2023/09/28 02:12:28;;;;;;;14.70;9.50;;;;;;;10.31;79.80;99906.38;106018;1257;61167;-22
2023/09/28 02:14:55;;;;;;;7.40;4.30;;;;;;;10.10;80.55;99907.41;105868;1251;73804;-22
2023/09/28 02:17:22;;;;;;;5.40;4.00;;;;;;;10.43;81.61;99907.50;105937;1251;74390;-22
2023/09/28 02:19:49;;;;;;;6.30;4.60;;;;;;;10.89;80.49;99907.52;105896;1254;72438;-22
2023/09/28 02:22:16;;;;;;;5.00;4.10;;;;;;;10.88;80.20;99904.14;105846;1251;61122;-22
2023/09/28 02:24:43;;;;;;;7.60;5.20;;;;;;;10.62;79.69;99908.19;105712;1256;61226;-22
2023/09/28 02:27:10;;;;;;;7.20;5.50;;;;;;;10.34;79.00;99906.68;105593;1254;74269;-22
2023/09/28 02:29:37;;;;;;;5.80;5.00;;;;;;;10.04;79.77;99913.01;105856;1251;74103;-22
2023/09/28 02:32:06;;;;;;;6.20;5.20;;;;;;;9.73;80.99;99913.91;105731;1253;72505;-22
2023/09/28 02:34:33;;;;;;;4.80;3.30;;;;;;;9.52;81.51;99909.87;105905;1251;61988;-22
2023/09/28 02:37:01;;;;;;;8.20;3.50;;;;;;;9.94;80.16;99912.04;105945;1251;61278;-22
2023/09/28 02:39:28;;;;;;;6.50;4.40;;;;;;;10.48;78.58;99909.08;105723;1254;73787;-22
2023/09/28 02:41:55;;;;;;;7.60;4.80;;;;;;;10.46;76.60;99908.02;106000;1251;74689;-22
2023/09/28 02:44:23;;;;;;;7.70;5.60;;;;;;;10.20;76.52;99906.38;105705;1254;72328;-22
2023/09/28 02:46:50;;;;;;;7.50;6.00;;;;;;;9.94;77.89;99912.92;105800;1251;61065;-22
2023/09/28 02:49:18;;;;;;;9.30;6.50;;;;;;;9.69;78.18;99909.51;105842;1257;61144;-22
2023/09/28 02:51:46;;;;;;;9.80;6.70;;;;;;;9.45;78.50;99908.41;105974;1251;73712;-22
2023/09/28 02:54:13;;;;;;;8.40;4.30;;;;;;;9.24;79.02;99906.61;105936;1251;74779;-23
2023/09/28 02:56:40;;;;;;;5.80;3.90;;;;;;;9.59;79.94;99907.71;105683;1254;72423;-22
2023/09/28 02:59:07;;;;;;;7.70;4.80;;;;;;;10.09;78.22;99905.92;105884;1251;61118;-23
2023/09/28 03:01:34;;;;;;;6.70;5.10;;;;;;;10.11;76.40;99912.19;105791;1257;61111;-22
2023/09/28 03:04:01;;;;;;;5.50;4.90;;;;;;;9.85;75.95;99912.61;105788;1251;72649;-22
2023/09/28 03:06:37;;;;;;;6.00;5.40;;;;;;;9.49;76.84;99908.31;105967;1251;74599;-22
2023/09/28 03:09:04;;;;;;;6.50;4.70;;;;;;;9.08;77.77;99908.26;105677;1260;72275;-22
2023/09/28 03:11:31;;;;;;;7.10;5.60;;;;;;;8.78;77.72;99911.82;105903;1251;61161;-22
2023/09/28 03:13:58;;;;;;;6.80;5.30;;;;;;;8.55;78.87;99919.08;105891;1252;61177;-22
2023/09/28 03:16:25;;;;;;;6.80;3.50;;;;;;;8.35;79.95;99921.55;105937;1252;73869;-23
2023/09/28 03:18:53;;;;;;;4.10;3.30;;;;;;;8.79;81.56;99922.80;105950;1252;73232;-22
2023/09/28 03:21:21;;;;;;;5.90;4.70;;;;;;;9.38;81.04;99923.42;105951;1256;71457;-22
2023/09/28 03:23:49;;;;;;;9.00;5.30;;;;;;;9.50;80.96;99925.59;105700;1252;61255;-25
2023/09/28 03:26:17;;;;;;;8.60;6.30;;;;;;;9.38;81.63;99923.55;105644;1259;61113;-25
2023/09/28 03:28:44;;;;;;;18.10;9.80;;;;;;;9.21;82.46;99916.47;105806;1257;73878;-25
2023/09/28 03:31:11;;;;;;;10.00;7.30;;;;;;;9.04;81.30;99919.77;105705;1258;74905;-25
2023/09/28 03:33:38;;;;;;;4.90;3.20;;;;;;;8.87;81.51;99915.08;105930;1251;72181;-25
2023/09/28 03:36:05;;;;;;;6.60;4.20;;;;;;;9.22;81.88;99915.21;105939;1251;61076;-23
2023/09/28 03:38:33;;;;;;;4.50;3.60;;;;;;;9.75;80.10;99917.41;105901;1256;61242;-25
2023/09/28 03:41:00;;;;;;;5.70;4.60;;;;;;;9.77;78.34;99916.95;105763;1251;73847;-23
2023/09/28 03:43:29;;;;;;;6.00;4.80;;;;;;;9.56;78.71;99915.85;105889;1256;74259;-23
2023/09/28 03:45:56;;;;;;;9.00;5.90;;;;;;;9.29;78.92;99921.52;105817;1254;72390;-23
2023/09/28 03:48:23;;;;;;;6.00;5.00;;;;;;;9.06;79.40;99922.56;105849;1251;61163;-22
2023/09/28 03:50:50;;;;;;;9.40;7.00;;;;;;;8.85;79.85;99923.86;105881;1251;61099;-23
2023/09/28 03:53:17;;;;;;;4.40;3.20;;;;;;;8.71;81.55;99925.75;105830;1256;73876;-24
2023/09/28 03:55:47;;;;;;;9.90;6.20;;;;;;;9.11;81.72;99924.56;105981;1251;74803;-22
2023/09/28 03:58:14;;;;;;;11.60;5.30;;;;;;;9.64;80.49;99925.60;105747;1258;72620;-23
2023/09/28 04:00:42;;;;;;;11.80;6.50;;;;;;;9.65;78.22;99925.59;105940;1251;61224;-23
2023/09/28 04:03:09;;;;;;;10.70;6.40;;;;;;;9.47;79.30;99926.84;105794;1257;61154;-23
2023/09/28 04:05:36;;;;;;;9.90;6.80;;;;;;;9.24;79.84;99928.98;105969;1251;73863;-23
2023/09/28 04:08:04;;;;;;;11.30;7.50;;;;;;;8.97;80.38;99930.06;105932;1251;74906;-23
2023/09/28 04:10:33;;;;;;;18.40;10.50;;;;;;;8.73;81.56;99932.00;105706;1251;72416;-23
2023/09/28 04:13:01;;;;;;;19.50;9.40;;;;;;;8.57;80.95;99927.56;105764;1254;61713;-23
2023/09/28 04:15:29;;;;;;;36.10;15.00;;;;;;;9.02;80.42;99928.05;105843;1253;61186;-23
2023/09/28 04:17:55;;;;;;;46.70;21.20;;;;;;;9.58;78.89;99925.11;105462;1254;73694;-23
2023/09/28 04:20:22;;;;;;;36.30;18.00;;;;;;;9.70;77.78;99926.81;105787;1251;74312;-24
2023/09/28 04:22:50;;;;;;;28.30;15.60;;;;;;;9.58;78.21;99927.36;105907;1251;72699;-23
2023/09/28 04:25:19;;;;;;;18.80;12.50;;;;;;;9.35;79.72;99927.75;105869;1251;61137;-23
2023/09/28 04:27:48;;;;;;;23.40;14.40;;;;;;;9.13;80.57;99927.21;105808;1257;61167;-23
2023/09/28 04:30:15;;;;;;;24.90;14.70;;;;;;;8.91;81.12;99928.34;105628;1259;72734;-23
2023/09/28 04:32:42;;;;;;;15.30;8.10;;;;;;;8.80;80.99;99929.36;105913;1257;74310;-23
2023/09/28 04:35:10;;;;;;;14.00;7.90;;;;;;;9.31;81.26;99928.34;105532;1256;72670;-23
2023/09/28 04:37:38;;;;;;;15.10;8.90;;;;;;;9.94;78.69;99929.07;105807;1251;61016;-23
2023/09/28 04:40:06;;;;;;;15.50;8.00;;;;;;;10.10;77.86;99928.02;105865;1255;61444;-23
2023/09/28 04:42:33;;;;;;;11.90;7.80;;;;;;;10.05;77.97;99927.69;105675;1252;73835;-23
2023/09/28 04:45:00;;;;;;;25.60;14.10;;;;;;;9.93;77.84;99927.75;105696;1251;74289;-23
2023/09/28 04:47:27;;;;;;;47.70;19.60;;;;;;;9.79;77.46;99929.83;105779;1251;72923;-23
2023/09/28 04:49:55;;;;;;;44.00;19.00;;;;;;;9.70;77.92;99928.55;105814;1251;61147;-23
2023/09/28 04:52:22;;;;;;;28.30;14.50;;;;;;;9.65;78.29;99924.84;105581;1257;61116;-23
2023/09/28 04:54:51;;;;;;;34.90;10.70;;;;;;;9.73;78.67;99926.06;105862;1251;73868;-22
2023/09/28 04:57:21;;;;;;;16.70;8.40;;;;;;;10.45;78.56;99928.05;105748;1254;74437;-23
2023/09/28 04:59:48;;;;;;;12.10;6.40;;;;;;;11.28;76.87;99927.75;105526;1259;72672;-23
2023/09/28 05:02:15;;;;;;;7.90;5.40;;;;;;;11.66;75.87;99925.11;105828;1251;61070;-23
2023/09/28 05:04:42;;;;;;;11.20;5.40;;;;;;;11.79;75.20;99929.91;105982;1257;61188;-23
2023/09/28 05:07:09;;;;;;;9.40;5.60;;;;;;;11.81;74.70;99932.41;105866;1256;73640;-23
2023/09/28 05:09:37;;;;;;;8.10;5.80;;;;;;;11.76;74.35;99934.53;105828;1251;74825;-23
2023/09/28 05:12:05;;;;;;;10.40;6.80;;;;;;;11.67;74.27;99934.23;105838;1254;72591;-23
2023/09/28 05:14:32;;;;;;;16.00;6.40;;;;;;;11.57;75.03;99941.19;105640;1252;61090;-23
2023/09/28 05:16:59;;;;;;;8.70;4.40;;;;;;;11.53;75.69;99943.58;105684;1256;61709;-23
2023/09/28 05:19:27;;;;;;;12.80;5.10;;;;;;;12.04;76.21;99943.42;105747;1256;74337;-23
2023/09/28 05:21:54;;;;;;;9.70;5.90;;;;;;;12.68;75.06;99951.30;105770;1257;74193;-23
2023/09/28 05:24:21;;;;;;;10.20;6.10;;;;;;;12.80;73.86;99949.65;105966;1254;72628;-23
2023/09/28 05:26:48;;;;;;;11.90;7.50;;;;;;;12.60;73.59;99950.10;105921;1251;61169;-23
2023/09/28 05:29:16;;;;;;;17.30;8.40;;;;;;;12.39;74.63;99950.45;105588;1257;61218;-23
2023/09/28 05:31:44;;;;;;;19.00;9.00;;;;;;;12.26;75.25;99952.15;105905;1251;73706;-23
2023/09/28 05:34:12;;;;;;;16.60;8.60;;;;;;;12.14;76.05;99950.06;105777;1251;73163;-23
2023/09/28 05:36:39;;;;;;;11.80;5.50;;;;;;;12.00;77.07;99949.96;105935;1252;72605;-23
2023/09/28 05:39:08;;;;;;;11.20;6.00;;;;;;;12.39;77.54;99948.75;105968;1251;61076;-23
2023/09/28 05:41:35;;;;;;;12.90;6.80;;;;;;;12.96;76.08;99944.80;105932;1256;61144;-24
2023/09/28 05:44:02;;;;;;;11.10;7.30;;;;;;;13.07;75.41;99941.70;105985;1255;72821;-23
2023/09/28 05:46:30;;;;;;;13.10;8.40;;;;;;;12.83;76.35;99942.50;105724;1259;75400;-23
2023/09/28 05:48:57;;;;;;;14.20;7.90;;;;;;;12.72;77.48;99944.86;105977;1257;72457;-23
2023/09/28 05:51:24;;;;;;;16.60;8.30;;;;;;;12.60;78.03;99944.35;105955;1251;61176;-23
2023/09/28 05:53:51;;;;;;;15.90;8.20;;;;;;;12.58;77.92;99944.55;105938;1257;61183;-23
2023/09/28 05:56:18;;;;;;;9.70;5.60;;;;;;;12.52;78.32;99944.27;105737;1259;73819;-23
2023/09/28 05:58:46;;;;;;;12.70;5.30;;;;;;;13.01;78.34;99943.86;105956;1256;73404;-23
2023/09/28 06:01:16;;;;;;;10.50;6.70;;;;;;;13.55;76.52;99938.68;105884;1254;72572;-24
2023/09/28 06:03:43;;;;;;;8.70;6.10;;;;;;;13.72;76.13;99941.55;105678;1254;61186;-22
2023/09/28 06:06:17;;;;;;;12.30;7.00;;;;;;;13.70;76.04;99943.08;105990;1252;61147;-23
2023/09/28 06:08:46;;;;;;;11.70;6.60;;;;;;;13.66;76.16;99941.95;105738;1252;73849;-23
2023/09/28 06:11:14;;;;;;;11.20;6.70;;;;;;;13.63;76.23;99942.96;105877;1254;74194;-22
2023/09/28 06:13:41;;;;;;;7.10;5.10;;;;;;;13.60;76.73;99942.16;105844;1253;72516;-22
2023/09/28 06:16:28;;;;;;;10.70;5.70;;;;;;;14.21;76.42;99941.89;105876;1251;61152;-22
2023/09/28 06:18:56;;;;;;;9.20;5.90;;;;;;;14.75;74.43;99938.02;105862;1260;61253;-22
2023/09/28 06:21:23;;;;;;;9.40;6.40;;;;;;;14.89;73.53;99937.85;105917;1254;73550;-22
2023/09/28 06:23:50;;;;;;;9.70;7.10;;;;;;;14.88;73.50;99941.96;105947;1257;74223;-22
2023/09/28 06:26:17;;;;;;;11.10;7.20;;;;;;;14.82;73.46;99938.45;105721;1256;72640;-22
2023/09/28 06:28:57;;;;;;;11.30;7.70;;;;;;;14.74;73.92;99936.21;105883;1254;61165;-22
2023/09/28 06:31:24;;;;;;;10.60;7.60;;;;;;;14.70;74.10;99937.35;105986;1251;61143;-21
2023/09/28 06:33:51;;;;;;;8.50;4.90;;;;;;;14.72;74.52;99939.81;105951;1251;73573;-22
2023/09/28 06:36:18;;;;;;;8.70;5.50;;;;;;;15.33;73.98;99935.34;105832;1256;74165;-24
2023/09/28 06:39:05;;;;;;;7.40;5.20;;;;;;;16.09;71.44;99933.57;105920;1251;72645;-22
2023/09/28 06:41:32;;;;;;;7.90;5.40;;;;;;;16.30;70.02;99934.47;105963;1255;61744;-22
2023/09/28 06:43:59;;;;;;;9.50;5.90;;;;;;;16.29;69.35;99939.14;105978;1255;61186;-22
2023/09/28 06:46:26;;;;;;;9.50;6.70;;;;;;;16.26;69.60;99940.77;105963;1251;73700;-22
2023/09/28 06:48:53;;;;;;;7.30;5.90;;;;;;;16.26;69.79;99943.63;105976;1251;74315;-23
2023/09/28 06:51:22;;;;;;;10.70;6.20;;;;;;;16.25;69.59;99944.05;105896;1251;71533;-23
2023/09/28 06:53:49;;;;;;;11.70;6.20;;;;;;;16.25;69.80;99942.59;105673;1255;61082;-24
2023/09/28 06:56:16;;;;;;;11.00;6.10;;;;;;;16.31;69.10;99944.54;105908;1255;61163;-23
2023/09/28 06:58:44;;;;;;;9.90;6.10;;;;;;;16.39;68.83;99944.71;105899;1251;73687;-24
2023/09/28 07:01:11;;;;;;;10.00;6.10;;;;;;;16.47;68.74;99944.12;105731;1252;73086;-23
2023/09/28 07:03:38;;;;;;;10.40;6.00;;;;;;;16.58;68.19;99945.11;105988;1256;73445;-23
2023/09/28 07:06:05;;;;;;;12.90;6.20;;;;;;;16.70;68.57;99945.87;105948;1251;60965;-22
2023/09/28 07:08:33;;;;;;;8.30;6.00;;;;;;;16.84;68.29;99945.30;105718;1256;61186;-23
2023/09/28 07:11:01;;;;;;;7.60;4.50;;;;;;;17.00;67.47;99944.70;105728;1251;74139;-23
2023/09/28 07:13:28;;;;;;;10.30;4.50;;;;;;;17.71;66.93;99943.79;105827;1257;74300;-23
2023/09/28 07:15:56;;;;;;;9.80;5.50;;;;;;;18.40;64.22;99946.71;103662;1257;3073963;-23
2023/09/28 07:18:23;;;;;;;8.90;4.60;;;;;;;18.72;63.15;99947.60;105733;1254;61144;-22
2023/09/28 07:20:51;;;;;;;8.40;5.20;;;;;;;18.87;62.98;99947.45;105955;1253;61099;-22
2023/09/28 07:23:18;;;;;;;9.40;5.30;;;;;;;18.97;61.81;99945.58;105772;1251;73820;-24
2023/09/28 07:25:45;;;;;;;10.20;5.20;;;;;;;19.03;61.83;99943.59;105955;1257;75951;-24
2023/09/28 07:28:12;;;;;;;11.10;5.10;;;;;;;19.14;61.93;99945.56;105993;1251;71471;-23
2023/09/28 07:30:39;;;;;;;9.00;5.80;;;;;;;19.32;61.85;99946.74;105870;1257;61137;-23
2023/09/28 07:33:07;;;;;;;9.20;6.20;;;;;;;19.50;60.94;99948.73;105774;1260;61363;-23
2023/09/28 07:35:34;;;;;;;7.00;5.30;;;;;;;19.64;60.60;99946.55;105766;1254;73782;-23
2023/09/28 07:38:02;;;;;;;6.80;5.10;;;;;;;19.76;59.61;99945.84;105879;1256;74318;-23
2023/09/28 07:40:29;;;;;;;9.80;6.00;;;;;;;19.93;59.78;99947.10;105779;1257;72384;-23
2023/09/28 07:43:12;;;;;;;;;;;;;;;20.10;58.09;99944.28;105882;1253;61148;-23
2023/09/28 07:45:40;;;;;;;7.60;4.70;;;;;;;20.23;58.64;99943.24;105949;1262;61176;-23
2023/09/28 07:48:08;;;;;;;11.20;5.10;;;;;;;20.46;58.08;99941.84;105918;1256;72567;-23
2023/09/28 07:50:35;;;;;;;8.00;4.10;;;;;;;20.61;56.91;99941.60;105842;1257;74219;-23
2023/09/28 07:53:03;;;;;;;6.70;4.40;;;;;;;20.70;56.88;99938.44;105799;1257;73084;-23
2023/09/28 07:55:31;;;;;;;8.00;4.30;;;;;;;20.85;56.86;99936.02;105740;1253;61192;-23
2023/09/28 07:57:58;;;;;;;11.40;4.00;;;;;;;20.97;56.35;99933.78;105893;1265;61236;-23
2023/09/28 08:00:45;;;;;;;7.40;4.30;;;;;;;21.16;55.23;99933.77;105830;1257;72841;-23
2023/09/28 08:03:13;;;;;;;4.70;3.50;;;;;;;21.32;55.28;99930.98;105632;1257;74330;-23
2023/09/28 08:05:40;;;;;;;11.20;7.40;;;;;;;21.48;54.69;99923.13;105676;1257;72580;-23
2023/09/28 08:08:07;;;;;;;8.60;4.90;;;;;;;21.50;53.15;99927.52;105768;1257;61178;-23
2023/09/28 08:10:44;;;;;;;9.70;4.70;;;;;;;21.56;53.57;99924.70;105745;1257;61124;-23
2023/09/28 08:13:11;;;;;;;8.50;4.10;;;;;;;21.68;53.04;99922.33;106014;1251;74163;-23
2023/09/28 08:15:41;;;;;;;9.40;4.00;;;;;;;21.89;52.96;99923.11;105876;1257;75598;-23
2023/09/28 08:18:09;;;;;;;7.30;4.10;;;;;;;22.06;51.99;99920.38;105678;1258;71399;-23
2023/09/28 08:20:37;;;;;;;7.10;3.70;;;;;;;22.18;51.18;99918.48;105668;1251;61474;-23
2023/09/28 08:23:09;;;;;;;9.90;4.00;;;;;;;22.31;51.02;99920.31;105579;1257;61782;-23
2023/09/28 08:25:37;;;;;;;5.50;3.60;;;;;;;22.39;50.12;99917.52;105897;1257;73855;-23
2023/09/28 08:28:04;;;;;;;9.00;3.60;;;;;;;22.50;50.29;99917.71;105945;1256;74030;-23
2023/09/28 08:30:31;;;;;;;10.70;4.30;;;;;;;22.57;49.67;99918.09;105652;1267;72715;-24
2023/09/28 08:32:59;;;;;;;8.50;3.90;;;;;;;22.72;50.29;99911.89;105951;1257;61035;-23
2023/09/28 08:35:29;;;;;;;8.50;3.50;;;;;;;23.00;50.13;99911.69;105785;1257;61095;-23
2023/09/28 08:37:56;;;;;;;6.40;3.90;;;;;;;23.12;48.04;99912.26;105922;1257;74188;-23
2023/09/28 08:40:24;;;;;;;6.20;3.70;;;;;;;23.19;48.10;99910.52;105832;1257;74866;-23
2023/09/28 08:43:54;;;;;;;7.30;3.90;;;;;;;23.59;47.67;99905.80;102789;1290;600462;-22
2023/09/28 08:46:23;;;;;;;5.50;3.50;;;;;;;23.65;46.70;99907.33;104851;1272;61267;-22
2023/09/28 08:49:14;;;;;;;5.40;3.30;;;;;;;23.76;46.48;99905.27;104731;1270;61802;-22
2023/09/28 08:51:44;;;;;;;6.50;3.60;;;;;;;23.84;46.82;99902.84;104875;1270;71623;-22
2023/09/28 08:54:12;;;;;;;5.20;3.30;;;;;;;24.16;46.19;99900.05;104847;1273;74444;-21
2023/09/28 08:56:40;;;;;;;7.80;3.20;;;;;;;24.57;45.76;99901.98;102653;1264;3053497;-22
2023/09/28 08:59:11;;;;;;;4.60;3.00;;;;;;;24.96;44.46;99902.68;104828;1270;61253;-22
2023/09/28 09:01:39;;;;;;;5.30;3.10;;;;;;;25.20;43.48;99899.52;104822;1270;61243;-22
2023/09/28 09:11:51;;;;;;;7.30;3.30;;;;;;;25.69;41.46;99892.14;102692;1289;600125;-22
2023/09/28 09:14:20;;;;;;;7.20;3.20;;;;;;;25.94;40.63;99895.80;104792;1274;61217;-22
2023/09/28 09:16:49;;;;;;;4.00;3.10;;;;;;;26.13;40.68;99893.73;104833;1267;61069;-22
2023/09/28 09:19:16;;;;;;;10.40;3.50;;;;;;;25.91;39.66;99889.60;104822;1269;72341;-22
2023/09/28 09:21:44;;;;;;;6.50;3.10;;;;;;;26.13;39.78;99886.35;104777;1271;73558;-22
2023/09/28 09:24:18;;;;;;;5.20;3.00;;;;;;;26.74;39.56;99884.33;104867;1266;72698;-22
2023/09/28 09:34:29;;;;;;;5.90;3.10;;;;;;;27.63;35.74;99869.01;102646;1291;600217;-22
2023/09/28 09:36:58;;;;;;;5.20;3.20;;;;;;;26.63;36.58;99869.55;104720;1273;61240;-22
2023/09/28 09:39:29;;;;;;;8.20;3.40;;;;;;;26.45;37.51;99873.94;105292;1259;62307;-22
2023/09/28 09:41:58;;;;;;;8.10;3.20;;;;;;;26.86;36.82;99867.85;105286;1260;74629;-23
2023/09/28 09:44:27;;;;;;;8.60;3.60;;;;;;;26.54;37.84;99865.45;105400;1260;73474;-22
2023/09/28 09:46:57;;;;;;;8.10;3.10;;;;;;;27.18;37.03;99868.63;103807;1260;3079928;-24
2023/09/28 09:49:25;;;;;;;9.90;3.70;;;;;;;27.75;35.24;99863.57;105344;1257;62027;-22
2023/09/28 09:51:54;;;;;;;7.30;3.10;;;;;;;28.10;34.00;99860.30;105608;1263;61180;-22
2023/09/28 09:54:22;;;;;;;4.60;2.70;;;;;;;28.62;33.77;99861.02;105603;1257;72558;-23
2023/09/28 09:56:51;;;;;;;9.00;3.30;;;;;;;29.04;32.22;99853.46;105543;1257;74721;-23
2023/09/28 09:59:21;;;;;;;5.10;3.40;;;;;;;29.38;31.64;99856.38;105266;1263;73525;-23
2023/09/28 10:01:53;;;;;;;5.80;3.10;;;;;;;29.87;31.22;99854.22;105696;1254;61395;-23
2023/09/28 10:04:23;;;;;;;10.90;3.50;;;;;;;30.44;29.87;99853.79;105699;1260;62191;-23
2023/09/28 10:14:38;;;;;;;8.80;3.40;;;;;;;30.16;28.98;99843.13;102614;1292;599891;-23
2023/09/28 10:17:06;;;;;;;7.30;3.20;;;;;;;29.81;30.63;99845.33;104881;1269;61158;-22
2023/09/28 10:19:34;;;;;;;4.40;2.70;;;;;;;29.87;30.49;99847.13;104869;1272;61125;-22
2023/09/28 10:22:02;;;;;;;6.90;2.70;;;;;;;30.24;30.21;99841.52;104886;1267;71467;-22
2023/09/28 10:24:46;;;;;;;5.90;3.20;;;;;;;30.68;28.66;99842.64;104819;1267;76518;-22
2023/09/28 10:27:14;;;;;;;5.80;3.20;;;;;;;30.96;29.15;99841.92;102612;1264;2937555;-23
2023/09/28 10:29:43;;;;;;;6.10;3.40;;;;;;;31.19;27.97;99838.95;104697;1272;61311;-23
2023/09/28 10:32:29;;;;;;;8.40;3.20;;;;;;;30.61;28.17;99835.65;104866;1263;61086;-23
2023/09/28 10:35:19;;;;;;;8.80;5.10;;;;;;;30.57;29.23;99835.21;104819;1264;62027;-22
2023/09/28 10:38:17;;;;;;;9.30;3.80;;;;;;;30.39;28.78;99827.87;105049;1263;67921;-23
2023/09/28 10:41:05;;;;;;;8.50;3.20;;;;;;;30.30;28.77;99827.89;105139;1263;74892;-22
2023/09/28 10:43:36;;;;;;;48.10;20.10;;;;;;;29.87;29.33;99825.59;104962;1269;61276;-22
2023/09/28 10:46:05;;;;;;;9.40;4.10;;;;;;;27.99;31.65;99823.25;104891;1263;61822;-23
2023/09/28 10:48:45;;;;;;;11.20;4.10;;;;;;;27.57;32.15;99825.42;105192;1256;74551;-23
2023/09/28 10:57:54;;;;;;;7.80;3.10;;;;;;;30.00;29.89;99814.89;102633;1293;600075;-22
2023/09/28 11:00:23;;;;;;;6.00;3.30;;;;;;;29.91;29.02;99813.45;105130;1264;61166;-23
2023/09/28 11:02:52;;;;;;;26.00;7.90;;;;;;;30.14;29.16;99811.77;104860;1265;62044;-23
2023/09/28 11:05:20;;;;;;;7.30;3.20;;;;;;;28.76;30.43;99810.36;104869;1267;71486;-23
2023/09/28 11:07:48;;;;;;;4.10;2.90;;;;;;;29.46;29.94;99804.39;104836;1273;76359;-23
2023/09/28 11:10:17;;;;;;;6.30;3.70;;;;;;;28.96;29.85;99803.69;104837;1273;73413;-23
2023/09/28 11:12:45;;;;;;;21.60;12.00;;;;;;;28.41;31.11;99800.56;102674;1269;61189;-23
2023/09/28 11:15:14;;;;;;;11.60;4.00;;;;;;;28.26;30.97;99800.91;105187;1264;61114;-23
2023/09/28 11:17:42;;;;;;;8.10;4.90;;;;;;;28.98;30.46;99794.91;105149;1269;72209;-23
2023/09/28 11:20:14;;;;;;;18.00;9.40;;;;;;;29.26;29.94;99790.33;105086;1263;73184;-23
2023/09/28 11:22:59;;;;;;;9.30;3.40;;;;;;;29.02;30.37;99785.21;104931;1269;71928;-23
2023/09/28 11:25:27;;;;;;;9.60;3.20;;;;;;;29.38;29.48;99787.75;105091;1264;61160;-23
2023/09/28 11:28:12;;;;;;;7.30;3.80;;;;;;;29.53;28.76;99782.86;105246;1266;61181;-23
2023/09/28 11:31:12;;;;;;;7.70;3.30;;;;;;;29.16;29.69;99785.41;105210;1261;72395;-23
2023/09/28 11:33:41;;;;;;;4.00;3.10;;;;;;;29.23;29.53;99779.35;105181;1268;75559;-25
2023/09/28 11:36:15;;;;;;;6.60;2.60;;;;;;;29.50;29.54;99776.48;105210;1264;72679;-23
2023/09/28 11:38:43;;;;;;;5.90;3.40;;;;;;;29.55;28.67;99781.66;105139;1264;61076;-24
2023/09/28 11:49:02;;;;;;;11.30;3.50;;;;;;;28.41;29.81;99775.66;102609;1293;600142;-23
2023/09/28 11:51:33;;;;;;;7.00;3.90;;;;;;;28.62;29.79;99771.36;104854;1267;61085;-24
2023/09/28 11:54:02;;;;;;;15.30;3.40;;;;;;;28.64;29.62;99768.50;104728;1275;62026;-24
2023/09/28 11:56:31;;;;;;;7.20;2.90;;;;;;;28.70;29.67;99767.21;104842;1272;71049;-23
2023/09/28 11:58:59;;;;;;;6.10;3.10;;;;;;;28.88;29.76;99764.22;105116;1267;76707;-24
2023/09/28 12:01:27;;;;;;;5.00;3.00;;;;;;;29.01;29.30;99761.11;102779;1269;3082449;-22
2023/09/28 12:03:56;;;;;;;5.60;2.60;;;;;;;29.09;29.16;99759.55;104822;1272;61131;-21
2023/09/28 12:06:26;;;;;;;5.40;3.50;;;;;;;29.25;29.22;99759.48;105061;1264;61061;-21
2023/09/28 12:08:55;;;;;;;8.20;3.00;;;;;;;29.30;29.22;99758.26;108542;1264;71003;-22
2023/09/28 12:11:40;;;;;;;6.80;3.60;;;;;;;29.32;28.83;99758.91;108684;1263;73568;-22
2023/09/28 12:14:08;;;;;;;4.80;3.00;;;;;;;29.24;28.70;99757.59;108805;1264;72627;-22
2023/09/28 12:16:35;;;;;;;6.20;2.80;;;;;;;29.00;28.38;99755.05;108666;1264;62286;-22